Terminal Aerodrome Forecast
Issued by NWS Pueblo, CO

Home | Current Version | Previous Version | Text Only | Print | Product List | Glossary On
Versions: 1 2 3 4 5 6 7 8 9 10 11 12 13 14 15 16 17 18 19 20 21 22 23 24 25
000
FTUS45 KPUB 021120
TAFPUB
TAF
KPUB 021120Z 0212/0312 VRB05KT P6SM FEW100 BKN200
     FM021600 04010G20KT P6SM SCT100 BKN150
     FM021800 10012KT P6SM SCT080 BKN120
     FM022200 09012KT P6SM VCTS SCT080CB BKN100
     FM030300 05008KT P6SM VCSH SCT080 BKN150
     FM030700 VRB05KT P6SM SCT015 BKN050=

USA.gov is the U.S. government's official web portal to all federal, state and local government web resources and services.